Zumbi dos Palmares Airport
SBMO : now visible

Airfield :











YOU CAN JOIN US ON...

 
LOGIN :

Register | Disclaimer

   EN    FR    IT 

 









Legend :    VFR   Marginal VFR   IFR   Intensive IFR   Very Intensive IFR
Visi :
Ceiling :
>= 8 km
>= 3000ft
5 to 8 km
1000 to 3000 ft
1500m to 5 km
500 to 1000 ft
800 to 1500m
200 to 500 ft
< 800m
< 200 ft
Symbols :   Thunderstorms  Fog  Heavy snow  Heavy precipitations  Wind > 20 kt






- Airport Elevation : 387 ft
- IATA code : MCZ


SBMO - Zumbi dos Palmares

CURRENT METAR :
  • 050200Z 12002KT 9999 SCT021 24/23 Q1017

EXPIRED METARs :
  • 050100Z 03003KT 9999 SCT025 23/22 Q1017
  • 050000Z 10003KT 9999 SCT030 23/22 Q1017

TAF TAF SBMO
Valid from the 05 at 00:00 until the 06 at 00:00 UTC


042100Z 0500/0600 12010KT 9000 SCT025 TN24/0508Z TX32/0517Z
BECMG 0500/0502 15009KT
PROB30
TEMPO 0508/0510 5000 BR BKN015 RMK PER
SBRE FIR / South America



MET'MAP, your aeronautical weather chart ! - Copyright ORBIFLY December 2007 - Disclaimer

ORBIFLY MET'MAP TEAM :

Programming & Development : Alexandra Zaïnal
Concept & original design : Baudouin d'Aumeries
Assistance for programming : Marc-Olivier Méhu
Technical & hardware support : Manuel Goepfert

Contact : metmap@orbifly.com




SOURCES & CREDITS :

   NOAA       Earth
Advisory